Rechercher aéroport 
image banner adimage banner adimage banner ad
image banner ad

L53 - Lodi Airpark

Situé à Lodi, United States

ICAO - L53, IATA -

Données fournies par Airmate  

Information générale

Coordonnées: N38°5'3" W121°18'59"
Élévation : 25 feet MSL.
Variation magnétique : 16° East
Voir autres Aéroports à California

Données opérationnelles

Special qualification required
Heure actuelle UTC:
Heure actuelle locale:
Météo à : KSCK - Stockton Metropolitan ( 22 km )
METAR: KSCK 191055Z AUTO 10003KT 10SM CLR 06/05 A3002 RMK AO2 SLP164 T00560050 $
TAF: KSCK 190533Z 1906/2006 32005KT P6SM SKC FM192100 15008KT P6SM FEW250
Voir NOTAMs / SUP AIP / TFR affectant cet aéroport [VIEW]
Fréquences de communication: [VIEW]

Pistes:

Identifiant RWYQFULongueur (ft)Largeur (ft)SurfaceLDA (ft)
07187522ASPH
25187522ASPH

Coordonnées de l'aéroport

Adresse: Lodi United States

Vue satellite de L53